sensor_id;sensor_type;location;lat;lon;timestamp;P1;durP1;ratioP1;P2;durP2;ratioP2
14768;SDS011;7476;49.404;11.152;2022-09-23T00:01:47;4.97;;;4.30;;
14768;SDS011;7476;49.404;11.152;2022-09-23T00:04:14;4.80;;;4.30;;
14768;SDS011;7476;49.404;11.152;2022-09-23T00:06:40;4.40;;;3.97;;
14768;SDS011;7476;49.404;11.152;2022-09-23T00:09:08;7.00;;;4.13;;
14768;SDS011;7476;49.404;11.152;2022-09-23T00:11:34;5.17;;;4.40;;
14768;SDS011;7476;49.404;11.152;2022-09-23T00:14:01;5.80;;;4.00;;
14768;SDS011;7476;49.404;11.152;2022-09-23T00:16:28;5.83;;;4.07;;
14768;SDS011;7476;49.404;11.152;2022-09-23T00:18:59;4.67;;;4.03;;
14768;SDS011;7476;49.404;11.152;2022-09-23T00:21:26;4.30;;;3.90;;
14768;SDS011;7476;49.404;11.152;2022-09-23T00:23:54;5.20;;;3.77;;
14768;SDS011;7476;49.404;11.152;2022-09-23T00:26:21;5.53;;;4.37;;
14768;SDS011;7476;49.404;11.152;2022-09-23T00:28:48;5.63;;;4.23;;
14768;SDS011;7476;49.404;11.152;2022-09-23T00:31:16;4.60;;;4.10;;
14768;SDS011;7476;49.404;11.152;2022-09-23T00:33:44;5.07;;;4.03;;
14768;SDS011;7476;49.404;11.152;2022-09-23T00:36:13;4.50;;;3.93;;
14768;SDS011;7476;49.404;11.152;2022-09-23T00:38:41;4.57;;;3.93;;
14768;SDS011;7476;49.404;11.152;2022-09-23T00:41:08;5.90;;;3.90;;
14768;SDS011;7476;49.404;11.152;2022-09-23T00:43:36;5.93;;;3.63;;
14768;SDS011;7476;49.404;11.152;2022-09-23T00:46:05;4.23;;;3.80;;
14768;SDS011;7476;49.404;11.152;2022-09-23T00:48:33;4.97;;;3.80;;
14768;SDS011;7476;49.404;11.152;2022-09-23T00:51:02;6.27;;;4.00;;
14768;SDS011;7476;49.404;11.152;2022-09-23T00:53:31;4.57;;;4.00;;
14768;SDS011;7476;49.404;11.152;2022-09-23T00:55:59;4.57;;;4.10;;
14768;SDS011;7476;49.404;11.152;2022-09-23T00:58:31;6.13;;;4.17;;
14768;SDS011;7476;49.404;11.152;2022-09-23T01:01:01;4.50;;;3.87;;
14768;SDS011;7476;49.404;11.152;2022-09-23T01:03:29;12.07;;;4.30;;
14768;SDS011;7476;49.404;11.152;2022-09-23T01:05:56;4.13;;;3.73;;
14768;SDS011;7476;49.404;11.152;2022-09-23T01:08:23;5.43;;;4.07;;
14768;SDS011;7476;49.404;11.152;2022-09-23T01:10:55;4.30;;;3.63;;
14768;SDS011;7476;49.404;11.152;2022-09-23T01:13:31;5.47;;;4.37;;
14768;SDS011;7476;49.404;11.152;2022-09-23T01:16:07;7.27;;;4.60;;
14768;SDS011;7476;49.404;11.152;2022-09-23T01:18:41;5.63;;;4.13;;
14768;SDS011;7476;49.404;11.152;2022-09-23T01:21:15;5.20;;;4.20;;
14768;SDS011;7476;49.404;11.152;2022-09-23T01:24:12;4.67;;;3.90;;
14768;SDS011;7476;49.404;11.152;2022-09-23T01:26:53;5.87;;;4.10;;
14768;SDS011;7476;49.404;11.152;2022-09-23T01:29:39;4.80;;;4.10;;
14768;SDS011;7476;49.404;11.152;2022-09-23T01:32:26;7.00;;;3.80;;
14768;SDS011;7476;49.404;11.152;2022-09-23T01:35:03;5.23;;;4.20;;
14768;SDS011;7476;49.404;11.152;2022-09-23T01:37:36;4.27;;;3.50;;
14768;SDS011;7476;49.404;11.152;2022-09-23T01:40:07;5.23;;;4.10;;
14768;SDS011;7476;49.404;11.152;2022-09-23T01:42:40;5.37;;;3.77;;
14768;SDS011;7476;49.404;11.152;2022-09-23T01:45:11;5.27;;;4.10;;
14768;SDS011;7476;49.404;11.152;2022-09-23T01:47:46;4.63;;;3.80;;
14768;SDS011;7476;49.404;11.152;2022-09-23T01:50:17;5.50;;;4.33;;
14768;SDS011;7476;49.404;11.152;2022-09-23T01:53:04;8.47;;;4.07;;
14768;SDS011;7476;49.404;11.152;2022-09-23T01:55:36;5.37;;;3.83;;
14768;SDS011;7476;49.404;11.152;2022-09-23T01:58:07;5.63;;;4.20;;
14768;SDS011;7476;49.404;11.152;2022-09-23T02:00:38;5.00;;;3.87;;
14768;SDS011;7476;49.404;11.152;2022-09-23T02:03:13;4.23;;;3.80;;
14768;SDS011;7476;49.404;11.152;2022-09-23T02:05:43;6.20;;;3.90;;
14768;SDS011;7476;49.404;11.152;2022-09-23T02:08:13;4.83;;;4.27;;
14768;SDS011;7476;49.404;11.152;2022-09-23T02:10:43;4.63;;;3.80;;
14768;SDS011;7476;49.404;11.152;2022-09-23T02:13:13;4.87;;;4.03;;
14768;SDS011;7476;49.404;11.152;2022-09-23T02:15:45;4.23;;;3.83;;
14768;SDS011;7476;49.404;11.152;2022-09-23T02:18:18;8.07;;;4.40;;
14768;SDS011;7476;49.404;11.152;2022-09-23T02:20:48;5.30;;;3.90;;
14768;SDS011;7476;49.404;11.152;2022-09-23T02:23:18;3.90;;;3.50;;
14768;SDS011;7476;49.404;11.152;2022-09-23T02:25:53;4.20;;;3.60;;
14768;SDS011;7476;49.404;11.152;2022-09-23T02:28:24;5.50;;;4.13;;
14768;SDS011;7476;49.404;11.152;2022-09-23T02:30:58;4.90;;;3.80;;
14768;SDS011;7476;49.404;11.152;2022-09-23T02:33:35;4.53;;;3.57;;
14768;SDS011;7476;49.404;11.152;2022-09-23T02:36:05;5.43;;;4.10;;
14768;SDS011;7476;49.404;11.152;2022-09-23T02:38:37;5.37;;;4.33;;
14768;SDS011;7476;49.404;11.152;2022-09-23T02:41:07;5.60;;;3.67;;
14768;SDS011;7476;49.404;11.152;2022-09-23T02:43:41;4.47;;;3.67;;
14768;SDS011;7476;49.404;11.152;2022-09-23T02:46:12;4.67;;;4.00;;
14768;SDS011;7476;49.404;11.152;2022-09-23T02:48:42;4.77;;;3.93;;
14768;SDS011;7476;49.404;11.152;2022-09-23T02:51:14;5.37;;;4.07;;
14768;SDS011;7476;49.404;11.152;2022-09-23T02:53:41;4.40;;;3.87;;
14768;SDS011;7476;49.404;11.152;2022-09-23T02:56:13;5.93;;;4.03;;
14768;SDS011;7476;49.404;11.152;2022-09-23T02:58:43;5.60;;;3.83;;
14768;SDS011;7476;49.404;11.152;2022-09-23T03:01:14;4.40;;;3.97;;
14768;SDS011;7476;49.404;11.152;2022-09-23T03:03:51;4.70;;;4.00;;
14768;SDS011;7476;49.404;11.152;2022-09-23T03:06:31;5.80;;;4.20;;
14768;SDS011;7476;49.404;11.152;2022-09-23T03:09:03;6.80;;;3.77;;
14768;SDS011;7476;49.404;11.152;2022-09-23T03:11:34;4.93;;;3.90;;
14768;SDS011;7476;49.404;11.152;2022-09-23T03:14:07;5.83;;;3.90;;
14768;SDS011;7476;49.404;11.152;2022-09-23T03:16:42;6.10;;;4.13;;
14768;SDS011;7476;49.404;11.152;2022-09-23T03:19:18;5.13;;;3.93;;
14768;SDS011;7476;49.404;11.152;2022-09-23T03:21:53;4.67;;;3.90;;
14768;SDS011;7476;49.404;11.152;2022-09-23T03:24:25;4.80;;;3.73;;
14768;SDS011;7476;49.404;11.152;2022-09-23T03:26:55;4.40;;;4.00;;
14768;SDS011;7476;49.404;11.152;2022-09-23T03:29:25;6.53;;;4.07;;
14768;SDS011;7476;49.404;11.152;2022-09-23T03:31:53;5.07;;;3.97;;
14768;SDS011;7476;49.404;11.152;2022-09-23T03:34:23;5.20;;;3.60;;
14768;SDS011;7476;49.404;11.152;2022-09-23T03:36:53;4.60;;;4.00;;
14768;SDS011;7476;49.404;11.152;2022-09-23T03:39:27;7.53;;;4.00;;
14768;SDS011;7476;49.404;11.152;2022-09-23T03:41:58;5.20;;;4.17;;
14768;SDS011;7476;49.404;11.152;2022-09-23T03:44:28;6.87;;;4.07;;
14768;SDS011;7476;49.404;11.152;2022-09-23T03:46:56;4.57;;;4.17;;
14768;SDS011;7476;49.404;11.152;2022-09-23T03:49:26;5.87;;;3.93;;
14768;SDS011;7476;49.404;11.152;2022-09-23T03:51:57;4.60;;;3.77;;
14768;SDS011;7476;49.404;11.152;2022-09-23T03:54:24;5.60;;;3.90;;
14768;SDS011;7476;49.404;11.152;2022-09-23T03:56:54;6.80;;;4.00;;
14768;SDS011;7476;49.404;11.152;2022-09-23T03:59:21;4.73;;;4.07;;
14768;SDS011;7476;49.404;11.152;2022-09-23T04:01:48;7.33;;;4.00;;
14768;SDS011;7476;49.404;11.152;2022-09-23T04:04:15;4.83;;;3.80;;
14768;SDS011;7476;49.404;11.152;2022-09-23T04:06:43;5.13;;;4.07;;
14768;SDS011;7476;49.404;11.152;2022-09-23T04:09:10;5.50;;;3.83;;
14768;SDS011;7476;49.404;11.152;2022-09-23T04:11:36;7.00;;;4.00;;
14768;SDS011;7476;49.404;11.152;2022-09-23T04:14:03;6.40;;;4.43;;
14768;SDS011;7476;49.404;11.152;2022-09-23T04:16:30;5.13;;;4.20;;
14768;SDS011;7476;49.404;11.152;2022-09-23T04:18:56;5.40;;;4.53;;
14768;SDS011;7476;49.404;11.152;2022-09-23T04:21:23;6.60;;;4.37;;
14768;SDS011;7476;49.404;11.152;2022-09-23T04:23:52;4.60;;;3.80;;
14768;SDS011;7476;49.404;11.152;2022-09-23T04:26:18;5.93;;;4.17;;
14768;SDS011;7476;49.404;11.152;2022-09-23T04:28:45;6.67;;;4.23;;
14768;SDS011;7476;49.404;11.152;2022-09-23T04:31:12;7.40;;;4.43;;
14768;SDS011;7476;49.404;11.152;2022-09-23T04:33:38;5.40;;;4.43;;
14768;SDS011;7476;49.404;11.152;2022-09-23T04:36:05;5.57;;;4.40;;
14768;SDS011;7476;49.404;11.152;2022-09-23T04:38:32;5.23;;;4.33;;
14768;SDS011;7476;49.404;11.152;2022-09-23T04:41:01;4.97;;;4.47;;
14768;SDS011;7476;49.404;11.152;2022-09-23T04:43:27;5.53;;;4.07;;
14768;SDS011;7476;49.404;11.152;2022-09-23T04:45:57;6.07;;;4.10;;
14768;SDS011;7476;49.404;11.152;2022-09-23T04:48:25;6.20;;;3.97;;
14768;SDS011;7476;49.404;11.152;2022-09-23T04:50:52;5.60;;;4.20;;
14768;SDS011;7476;49.404;11.152;2022-09-23T04:53:18;5.00;;;4.40;;
14768;SDS011;7476;49.404;11.152;2022-09-23T04:55:46;5.17;;;4.20;;
14768;SDS011;7476;49.404;11.152;2022-09-23T04:58:17;5.13;;;3.90;;
14768;SDS011;7476;49.404;11.152;2022-09-23T05:00:47;5.03;;;4.20;;
14768;SDS011;7476;49.404;11.152;2022-09-23T05:03:13;6.90;;;4.60;;
14768;SDS011;7476;49.404;11.152;2022-09-23T05:05:40;5.73;;;4.50;;
14768;SDS011;7476;49.404;11.152;2022-09-23T05:08:07;5.53;;;4.60;;
14768;SDS011;7476;49.404;11.152;2022-09-23T05:10:34;4.80;;;4.27;;
14768;SDS011;7476;49.404;11.152;2022-09-23T05:13:01;5.67;;;4.40;;
14768;SDS011;7476;49.404;11.152;2022-09-23T05:15:29;5.93;;;4.87;;
14768;SDS011;7476;49.404;11.152;2022-09-23T05:17:56;7.37;;;4.53;;
14768;SDS011;7476;49.404;11.152;2022-09-23T05:20:23;6.23;;;4.63;;
14768;SDS011;7476;49.404;11.152;2022-09-23T05:22:49;8.63;;;4.70;;
14768;SDS011;7476;49.404;11.152;2022-09-23T05:25:19;7.23;;;5.40;;
14768;SDS011;7476;49.404;11.152;2022-09-23T05:27:47;7.37;;;4.80;;
14768;SDS011;7476;49.404;11.152;2022-09-23T05:30:14;6.03;;;4.63;;
14768;SDS011;7476;49.404;11.152;2022-09-23T05:32:42;5.77;;;4.77;;
14768;SDS011;7476;49.404;11.152;2022-09-23T05:35:09;5.20;;;4.40;;
14768;SDS011;7476;49.404;11.152;2022-09-23T05:37:36;4.80;;;4.27;;
14768;SDS011;7476;49.404;11.152;2022-09-23T05:40:03;6.70;;;4.77;;
14768;SDS011;7476;49.404;11.152;2022-09-23T05:42:30;8.40;;;4.73;;
14768;SDS011;7476;49.404;11.152;2022-09-23T05:44:57;5.37;;;4.57;;
14768;SDS011;7476;49.404;11.152;2022-09-23T05:47:23;7.00;;;4.80;;
14768;SDS011;7476;49.404;11.152;2022-09-23T05:49:51;7.10;;;5.03;;
14768;SDS011;7476;49.404;11.152;2022-09-23T05:52:19;5.40;;;4.90;;
14768;SDS011;7476;49.404;11.152;2022-09-23T05:54:45;10.77;;;5.50;;
14768;SDS011;7476;49.404;11.152;2022-09-23T05:57:12;6.77;;;5.80;;
14768;SDS011;7476;49.404;11.152;2022-09-23T05:59:39;7.37;;;5.27;;
14768;SDS011;7476;49.404;11.152;2022-09-23T06:02:07;5.37;;;4.70;;
14768;SDS011;7476;49.404;11.152;2022-09-23T06:04:34;5.07;;;4.37;;
14768;SDS011;7476;49.404;11.152;2022-09-23T06:07:02;5.33;;;4.50;;
14768;SDS011;7476;49.404;11.152;2022-09-23T06:09:29;5.17;;;3.80;;
14768;SDS011;7476;49.404;11.152;2022-09-23T06:11:55;4.53;;;4.00;;
14768;SDS011;7476;49.404;11.152;2022-09-23T06:14:22;6.47;;;4.43;;
14768;SDS011;7476;49.404;11.152;2022-09-23T06:16:48;5.10;;;4.40;;
14768;SDS011;7476;49.404;11.152;2022-09-23T06:19:15;6.03;;;4.10;;
14768;SDS011;7476;49.404;11.152;2022-09-23T06:21:42;3.90;;;3.53;;
14768;SDS011;7476;49.404;11.152;2022-09-23T06:24:09;6.17;;;3.80;;
14768;SDS011;7476;49.404;11.152;2022-09-23T06:26:36;6.07;;;3.83;;
14768;SDS011;7476;49.404;11.152;2022-09-23T06:29:06;4.50;;;3.70;;
14768;SDS011;7476;49.404;11.152;2022-09-23T06:31:35;4.07;;;3.60;;
14768;SDS011;7476;49.404;11.152;2022-09-23T06:34:02;4.60;;;4.17;;
14768;SDS011;7476;49.404;11.152;2022-09-23T06:36:29;6.10;;;4.10;;
14768;SDS011;7476;49.404;11.152;2022-09-23T06:38:56;4.00;;;3.60;;
14768;SDS011;7476;49.404;11.152;2022-09-23T06:41:25;4.93;;;4.23;;
14768;SDS011;7476;49.404;11.152;2022-09-23T06:43:52;6.90;;;4.50;;
14768;SDS011;7476;49.404;11.152;2022-09-23T06:46:18;9.30;;;4.00;;
14768;SDS011;7476;49.404;11.152;2022-09-23T06:48:45;5.23;;;4.03;;
14768;SDS011;7476;49.404;11.152;2022-09-23T06:51:13;4.97;;;4.10;;
14768;SDS011;7476;49.404;11.152;2022-09-23T06:53:43;5.10;;;3.90;;
14768;SDS011;7476;49.404;11.152;2022-09-23T06:56:11;5.23;;;4.07;;
14768;SDS011;7476;49.404;11.152;2022-09-23T06:58:39;5.17;;;3.77;;
14768;SDS011;7476;49.404;11.152;2022-09-23T07:01:08;4.70;;;4.30;;
14768;SDS011;7476;49.404;11.152;2022-09-23T07:03:35;4.43;;;4.03;;
14768;SDS011;7476;49.404;11.152;2022-09-23T07:06:03;4.30;;;3.90;;
14768;SDS011;7476;49.404;11.152;2022-09-23T07:08:31;7.93;;;5.00;;
14768;SDS011;7476;49.404;11.152;2022-09-23T07:10:59;7.97;;;4.80;;
14768;SDS011;7476;49.404;11.152;2022-09-23T07:13:27;7.07;;;4.57;;
14768;SDS011;7476;49.404;11.152;2022-09-23T07:15:57;6.60;;;4.73;;
14768;SDS011;7476;49.404;11.152;2022-09-23T07:18:26;5.83;;;5.07;;
14768;SDS011;7476;49.404;11.152;2022-09-23T07:20:54;5.60;;;5.10;;
14768;SDS011;7476;49.404;11.152;2022-09-23T07:23:22;8.50;;;5.37;;
14768;SDS011;7476;49.404;11.152;2022-09-23T07:25:49;5.93;;;5.23;;
14768;SDS011;7476;49.404;11.152;2022-09-23T07:28:17;5.43;;;4.77;;
14768;SDS011;7476;49.404;11.152;2022-09-23T07:30:44;4.80;;;4.40;;
14768;SDS011;7476;49.404;11.152;2022-09-23T07:33:12;5.73;;;4.67;;
14768;SDS011;7476;49.404;11.152;2022-09-23T07:35:39;4.83;;;4.40;;
14768;SDS011;7476;49.404;11.152;2022-09-23T07:38:07;5.60;;;4.50;;
14768;SDS011;7476;49.404;11.152;2022-09-23T07:40:34;5.60;;;4.43;;
14768;SDS011;7476;49.404;11.152;2022-09-23T07:43:02;5.07;;;4.10;;
14768;SDS011;7476;49.404;11.152;2022-09-23T07:45:29;4.00;;;3.60;;
14768;SDS011;7476;49.404;11.152;2022-09-23T07:47:58;3.80;;;3.50;;
14768;SDS011;7476;49.404;11.152;2022-09-23T07:50:26;4.37;;;3.63;;
14768;SDS011;7476;49.404;11.152;2022-09-23T07:52:55;3.87;;;3.40;;
14768;SDS011;7476;49.404;11.152;2022-09-23T07:55:22;3.67;;;3.37;;
14768;SDS011;7476;49.404;11.152;2022-09-23T07:57:49;4.03;;;3.23;;
14768;SDS011;7476;49.404;11.152;2022-09-23T08:00:16;3.60;;;3.20;;
14768;SDS011;7476;49.404;11.152;2022-09-23T08:02:43;3.03;;;2.77;;
14768;SDS011;7476;49.404;11.152;2022-09-23T08:05:09;4.23;;;3.00;;
14768;SDS011;7476;49.404;11.152;2022-09-23T08:07:37;3.23;;;2.93;;
14768;SDS011;7476;49.404;11.152;2022-09-23T08:10:05;3.00;;;2.70;;
14768;SDS011;7476;49.404;11.152;2022-09-23T08:12:32;3.40;;;3.10;;
14768;SDS011;7476;49.404;11.152;2022-09-23T08:14:59;3.20;;;2.90;;
14768;SDS011;7476;49.404;11.152;2022-09-23T08:17:26;3.23;;;2.93;;
14768;SDS011;7476;49.404;11.152;2022-09-23T08:19:53;3.07;;;2.80;;
14768;SDS011;7476;49.404;11.152;2022-09-23T08:22:19;2.87;;;2.60;;
14768;SDS011;7476;49.404;11.152;2022-09-23T08:24:47;3.40;;;2.43;;
14768;SDS011;7476;49.404;11.152;2022-09-23T08:27:14;3.00;;;2.70;;
14768;SDS011;7476;49.404;11.152;2022-09-23T08:29:40;2.67;;;2.47;;
14768;SDS011;7476;49.404;11.152;2022-09-23T08:32:07;2.97;;;2.67;;
14768;SDS011;7476;49.404;11.152;2022-09-23T08:34:33;2.50;;;2.30;;
14768;SDS011;7476;49.404;11.152;2022-09-23T08:37:00;2.57;;;2.37;;
14768;SDS011;7476;49.404;11.152;2022-09-23T08:39:27;4.23;;;2.47;;
14768;SDS011;7476;49.404;11.152;2022-09-23T08:42:01;2.73;;;2.43;;
14768;SDS011;7476;49.404;11.152;2022-09-23T08:44:41;3.17;;;2.00;;
14768;SDS011;7476;49.404;11.152;2022-09-23T08:47:13;2.30;;;2.10;;
14768;SDS011;7476;49.404;11.152;2022-09-23T08:49:46;2.43;;;2.20;;
14768;SDS011;7476;49.404;11.152;2022-09-23T08:52:19;3.37;;;2.30;;
14768;SDS011;7476;49.404;11.152;2022-09-23T08:54:53;2.00;;;1.90;;
14768;SDS011;7476;49.404;11.152;2022-09-23T08:57:22;2.37;;;2.17;;
14768;SDS011;7476;49.404;11.152;2022-09-23T08:59:57;2.30;;;2.10;;
14768;SDS011;7476;49.404;11.152;2022-09-23T09:02:25;2.10;;;1.90;;
14768;SDS011;7476;49.404;11.152;2022-09-23T09:04:53;2.20;;;2.00;;
14768;SDS011;7476;49.404;11.152;2022-09-23T09:07:22;2.20;;;2.00;;
14768;SDS011;7476;49.404;11.152;2022-09-23T09:09:53;2.43;;;1.90;;
14768;SDS011;7476;49.404;11.152;2022-09-23T09:12:27;2.27;;;1.70;;
14768;SDS011;7476;49.404;11.152;2022-09-23T09:15:00;2.43;;;2.00;;
14768;SDS011;7476;49.404;11.152;2022-09-23T09:17:28;1.63;;;1.53;;
14768;SDS011;7476;49.404;11.152;2022-09-23T09:20:03;2.07;;;1.80;;
14768;SDS011;7476;49.404;11.152;2022-09-23T09:22:46;2.30;;;2.10;;
14768;SDS011;7476;49.404;11.152;2022-09-23T09:25:22;1.93;;;1.83;;
14768;SDS011;7476;49.404;11.152;2022-09-23T09:28:00;2.20;;;2.00;;
14768;SDS011;7476;49.404;11.152;2022-09-23T09:30:28;2.57;;;1.97;;
14768;SDS011;7476;49.404;11.152;2022-09-23T09:32:57;2.13;;;1.80;;
14768;SDS011;7476;49.404;11.152;2022-09-23T09:35:28;2.03;;;1.83;;
14768;SDS011;7476;49.404;11.152;2022-09-23T09:38:01;2.27;;;1.63;;
14768;SDS011;7476;49.404;11.152;2022-09-23T09:40:29;2.10;;;1.90;;
14768;SDS011;7476;49.404;11.152;2022-09-23T09:42:56;1.97;;;1.77;;
14768;SDS011;7476;49.404;11.152;2022-09-23T09:45:26;2.03;;;1.90;;
14768;SDS011;7476;49.404;11.152;2022-09-23T09:48:00;2.77;;;1.80;;
14768;SDS011;7476;49.404;11.152;2022-09-23T09:50:42;2.47;;;2.00;;
14768;SDS011;7476;49.404;11.152;2022-09-23T09:53:20;2.57;;;1.80;;
14768;SDS011;7476;49.404;11.152;2022-09-23T09:56:00;1.93;;;1.80;;
14768;SDS011;7476;49.404;11.152;2022-09-23T09:58:31;2.00;;;1.80;;
14768;SDS011;7476;49.404;11.152;2022-09-23T10:01:06;1.77;;;1.60;;
14768;SDS011;7476;49.404;11.152;2022-09-23T10:03:36;1.90;;;1.67;;
14768;SDS011;7476;49.404;11.152;2022-09-23T10:06:12;1.67;;;1.57;;
14768;SDS011;7476;49.404;11.152;2022-09-23T10:11:33;2.10;;;1.90;;
14768;SDS011;7476;49.404;11.152;2022-09-23T10:14:02;2.27;;;1.93;;
14768;SDS011;7476;49.404;11.152;2022-09-23T10:16:32;1.87;;;1.63;;
14768;SDS011;7476;49.404;11.152;2022-09-23T10:19:00;1.97;;;1.60;;
14768;SDS011;7476;49.404;11.152;2022-09-23T10:21:30;1.60;;;1.50;;
14768;SDS011;7476;49.404;11.152;2022-09-23T10:23:59;1.67;;;1.57;;
14768;SDS011;7476;49.404;11.152;2022-09-23T10:26:29;1.70;;;1.60;;
14768;SDS011;7476;49.404;11.152;2022-09-23T10:28:57;1.60;;;1.50;;
14768;SDS011;7476;49.404;11.152;2022-09-23T10:31:28;1.67;;;1.57;;
14768;SDS011;7476;49.404;11.152;2022-09-23T10:33:58;1.57;;;1.47;;
14768;SDS011;7476;49.404;11.152;2022-09-23T10:36:26;1.70;;;1.60;;
14768;SDS011;7476;49.404;11.152;2022-09-23T10:38:55;3.70;;;1.87;;
14768;SDS011;7476;49.404;11.152;2022-09-23T10:41:46;2.50;;;1.30;;
14768;SDS011;7476;49.404;11.152;2022-09-23T10:44:39;2.37;;;1.47;;
14768;SDS011;7476;49.404;11.152;2022-09-23T10:47:35;2.40;;;1.60;;
14768;SDS011;7476;49.404;11.152;2022-09-23T10:50:13;1.73;;;1.63;;
14768;SDS011;7476;49.404;11.152;2022-09-23T10:52:53;1.77;;;1.50;;
14768;SDS011;7476;49.404;11.152;2022-09-23T10:55:33;2.53;;;1.50;;
14768;SDS011;7476;49.404;11.152;2022-09-23T10:58:31;1.93;;;1.70;;
14768;SDS011;7476;49.404;11.152;2022-09-23T11:01:11;1.67;;;1.47;;
14768;SDS011;7476;49.404;11.152;2022-09-23T11:06:58;1.37;;;1.27;;
14768;SDS011;7476;49.404;11.152;2022-09-23T11:09:41;1.83;;;1.30;;
14768;SDS011;7476;49.404;11.152;2022-09-23T11:12:19;1.50;;;1.40;;
14768;SDS011;7476;49.404;11.152;2022-09-23T11:15:02;1.83;;;1.40;;
14768;SDS011;7476;49.404;11.152;2022-09-23T11:17:46;7.27;;;2.20;;
14768;SDS011;7476;49.404;11.152;2022-09-23T11:20:46;1.70;;;1.37;;
14768;SDS011;7476;49.404;11.152;2022-09-23T11:23:31;2.33;;;1.50;;
14768;SDS011;7476;49.404;11.152;2022-09-23T11:26:27;1.63;;;1.40;;
14768;SDS011;7476;49.404;11.152;2022-09-23T11:32:11;1.50;;;1.40;;
14768;SDS011;7476;49.404;11.152;2022-09-23T11:35:08;1.60;;;1.47;;
14768;SDS011;7476;49.404;11.152;2022-09-23T11:37:41;1.50;;;1.40;;
14768;SDS011;7476;49.404;11.152;2022-09-23T11:40:14;1.50;;;1.40;;
14768;SDS011;7476;49.404;11.152;2022-09-23T11:42:46;2.90;;;1.60;;
14768;SDS011;7476;49.404;11.152;2022-09-23T11:45:19;1.87;;;1.70;;
14768;SDS011;7476;49.404;11.152;2022-09-23T11:47:51;1.93;;;1.73;;
14768;SDS011;7476;49.404;11.152;2022-09-23T11:50:24;1.80;;;1.70;;
14768;SDS011;7476;49.404;11.152;2022-09-23T11:52:55;1.77;;;1.67;;
14768;SDS011;7476;49.404;11.152;2022-09-23T11:55:28;1.70;;;1.60;;
14768;SDS011;7476;49.404;11.152;2022-09-23T11:57:59;1.70;;;1.60;;
14768;SDS011;7476;49.404;11.152;2022-09-23T12:00:32;2.00;;;1.70;;
14768;SDS011;7476;49.404;11.152;2022-09-23T12:03:04;1.60;;;1.50;;
14768;SDS011;7476;49.404;11.152;2022-09-23T12:05:37;1.70;;;1.60;;
14768;SDS011;7476;49.404;11.152;2022-09-23T12:08:11;1.93;;;1.77;;
14768;SDS011;7476;49.404;11.152;2022-09-23T12:10:47;1.77;;;1.50;;
14768;SDS011;7476;49.404;11.152;2022-09-23T12:13:22;2.47;;;1.40;;
14768;SDS011;7476;49.404;11.152;2022-09-23T12:16:09;1.83;;;1.40;;
14768;SDS011;7476;49.404;11.152;2022-09-23T12:18:57;1.90;;;1.60;;
14768;SDS011;7476;49.404;11.152;2022-09-23T12:24:43;1.83;;;1.60;;
14768;SDS011;7476;49.404;11.152;2022-09-23T12:27:16;2.10;;;1.50;;
14768;SDS011;7476;49.404;11.152;2022-09-23T12:29:51;2.83;;;1.70;;
14768;SDS011;7476;49.404;11.152;2022-09-23T12:32:21;1.77;;;1.67;;
14768;SDS011;7476;49.404;11.152;2022-09-23T12:34:49;1.70;;;1.60;;
14768;SDS011;7476;49.404;11.152;2022-09-23T12:37:22;2.00;;;1.53;;
14768;SDS011;7476;49.404;11.152;2022-09-23T12:39:51;2.13;;;1.70;;
14768;SDS011;7476;49.404;11.152;2022-09-23T12:42:20;2.53;;;1.70;;
14768;SDS011;7476;49.404;11.152;2022-09-23T12:44:48;1.80;;;1.70;;
14768;SDS011;7476;49.404;11.152;2022-09-23T12:56:19;1.57;;;1.47;;
14768;SDS011;7476;49.404;11.152;2022-09-23T12:58:59;1.50;;;1.40;;
14768;SDS011;7476;49.404;11.152;2022-09-23T13:01:35;1.70;;;1.40;;
14768;SDS011;7476;49.404;11.152;2022-09-23T13:04:03;2.03;;;1.50;;
14768;SDS011;7476;49.404;11.152;2022-09-23T13:06:52;2.37;;;1.60;;
14768;SDS011;7476;49.404;11.152;2022-09-23T13:09:23;1.60;;;1.50;;
14768;SDS011;7476;49.404;11.152;2022-09-23T13:11:54;2.80;;;1.40;;
14768;SDS011;7476;49.404;11.152;2022-09-23T13:14:25;1.80;;;1.43;;
14768;SDS011;7476;49.404;11.152;2022-09-23T13:16:56;1.57;;;1.30;;
14768;SDS011;7476;49.404;11.152;2022-09-23T13:19:42;1.60;;;1.50;;
14768;SDS011;7476;49.404;11.152;2022-09-23T13:22:11;1.60;;;1.50;;
14768;SDS011;7476;49.404;11.152;2022-09-23T13:24:39;2.23;;;1.40;;
14768;SDS011;7476;49.404;11.152;2022-09-23T13:27:12;1.50;;;1.40;;
14768;SDS011;7476;49.404;11.152;2022-09-23T13:29:49;2.50;;;1.60;;
14768;SDS011;7476;49.404;11.152;2022-09-23T13:32:20;1.97;;;1.47;;
14768;SDS011;7476;49.404;11.152;2022-09-23T13:34:53;2.83;;;1.40;;
14768;SDS011;7476;49.404;11.152;2022-09-23T13:37:23;1.70;;;1.60;;
14768;SDS011;7476;49.404;11.152;2022-09-23T13:40:05;1.50;;;1.40;;
14768;SDS011;7476;49.404;11.152;2022-09-23T13:42:32;2.50;;;1.50;;
14768;SDS011;7476;49.404;11.152;2022-09-23T13:45:11;2.07;;;1.73;;
14768;SDS011;7476;49.404;11.152;2022-09-23T13:47:40;2.10;;;1.87;;
14768;SDS011;7476;49.404;11.152;2022-09-23T13:50:12;1.57;;;1.47;;
14768;SDS011;7476;49.404;11.152;2022-09-23T13:52:42;1.60;;;1.50;;
14768;SDS011;7476;49.404;11.152;2022-09-23T13:55:22;1.60;;;1.50;;
14768;SDS011;7476;49.404;11.152;2022-09-23T13:57:55;1.50;;;1.40;;
14768;SDS011;7476;49.404;11.152;2022-09-23T14:00:25;1.40;;;1.30;;
14768;SDS011;7476;49.404;11.152;2022-09-23T14:02:57;1.75;;;1.65;;
14768;SDS011;7476;49.404;11.152;2022-09-23T14:05:24;1.75;;;1.65;;
14768;SDS011;7476;49.404;11.152;2022-09-23T14:07:52;1.63;;;1.48;;
14768;SDS011;7476;49.404;11.152;2022-09-23T14:10:21;1.83;;;1.70;;
14768;SDS011;7476;49.404;11.152;2022-09-23T14:12:50;1.70;;;1.60;;
14768;SDS011;7476;49.404;11.152;2022-09-23T14:15:18;2.63;;;1.67;;
14768;SDS011;7476;49.404;11.152;2022-09-23T14:17:47;1.77;;;1.67;;
14768;SDS011;7476;49.404;11.152;2022-09-23T14:20:19;1.70;;;1.52;;
14768;SDS011;7476;49.404;11.152;2022-09-23T14:22:46;2.07;;;1.67;;
14768;SDS011;7476;49.404;11.152;2022-09-23T14:25:13;2.40;;;1.53;;
14768;SDS011;7476;49.404;11.152;2022-09-23T14:27:42;2.13;;;1.60;;
14768;SDS011;7476;49.404;11.152;2022-09-23T14:30:12;1.77;;;1.67;;
14768;SDS011;7476;49.404;11.152;2022-09-23T14:32:40;3.10;;;1.43;;
14768;SDS011;7476;49.404;11.152;2022-09-23T14:35:17;1.73;;;1.63;;
14768;SDS011;7476;49.404;11.152;2022-09-23T14:37:45;2.30;;;1.40;;
14768;SDS011;7476;49.404;11.152;2022-09-23T14:40:33;1.80;;;1.70;;
14768;SDS011;7476;49.404;11.152;2022-09-23T14:43:03;1.75;;;1.42;;
14768;SDS011;7476;49.404;11.152;2022-09-23T14:45:32;1.58;;;1.48;;
14768;SDS011;7476;49.404;11.152;2022-09-23T14:48:01;1.73;;;1.50;;
14768;SDS011;7476;49.404;11.152;2022-09-23T14:50:33;2.88;;;1.60;;
14768;SDS011;7476;49.404;11.152;2022-09-23T14:53:31;2.30;;;1.55;;
14768;SDS011;7476;49.404;11.152;2022-09-23T14:56:13;2.17;;;1.73;;
14768;SDS011;7476;49.404;11.152;2022-09-23T14:58:43;1.50;;;1.40;;
14768;SDS011;7476;49.404;11.152;2022-09-23T15:04:08;3.30;;;1.57;;
14768;SDS011;7476;49.404;11.152;2022-09-23T15:06:43;2.37;;;1.70;;
14768;SDS011;7476;49.404;11.152;2022-09-23T15:09:15;1.90;;;1.50;;
14768;SDS011;7476;49.404;11.152;2022-09-23T15:11:47;4.13;;;2.40;;
14768;SDS011;7476;49.404;11.152;2022-09-23T15:14:16;1.77;;;1.67;;
14768;SDS011;7476;49.404;11.152;2022-09-23T15:16:43;2.60;;;1.70;;
14768;SDS011;7476;49.404;11.152;2022-09-23T15:19:13;1.90;;;1.70;;
14768;SDS011;7476;49.404;11.152;2022-09-23T15:21:45;1.60;;;1.50;;
14768;SDS011;7476;49.404;11.152;2022-09-23T15:29:53;1.67;;;1.57;;
14768;SDS011;7476;49.404;11.152;2022-09-23T15:32:22;2.00;;;1.60;;
14768;SDS011;7476;49.404;11.152;2022-09-23T15:34:49;1.93;;;1.70;;
14768;SDS011;7476;49.404;11.152;2022-09-23T15:37:17;2.30;;;1.73;;
14768;SDS011;7476;49.404;11.152;2022-09-23T15:39:44;2.03;;;1.83;;
14768;SDS011;7476;49.404;11.152;2022-09-23T15:42:13;2.20;;;2.00;;